sensor_id;sensor_type;location;lat;lon;timestamp;P1;durP1;ratioP1;P2;durP2;ratioP2
64653;SDS011;51065;48.884;12.598;2023-03-04T00:01:31;19.75;;;7.60;;
64653;SDS011;51065;48.884;12.598;2023-03-04T00:03:56;19.17;;;7.47;;
64653;SDS011;51065;48.884;12.598;2023-03-04T00:06:22;21.55;;;7.15;;
64653;SDS011;51065;48.884;12.598;2023-03-04T00:08:48;21.05;;;7.38;;
64653;SDS011;51065;48.884;12.598;2023-03-04T00:11:13;19.35;;;7.25;;
64653;SDS011;51065;48.884;12.598;2023-03-04T00:13:39;19.92;;;7.38;;
64653;SDS011;51065;48.884;12.598;2023-03-04T00:16:04;20.52;;;7.65;;
64653;SDS011;51065;48.884;12.598;2023-03-04T00:18:30;23.23;;;8.02;;
64653;SDS011;51065;48.884;12.598;2023-03-04T00:20:56;23.27;;;8.50;;
64653;SDS011;51065;48.884;12.598;2023-03-04T00:23:21;21.13;;;7.93;;
64653;SDS011;51065;48.884;12.598;2023-03-04T00:25:47;19.98;;;8.07;;
64653;SDS011;51065;48.884;12.598;2023-03-04T00:28:12;21.08;;;7.18;;
64653;SDS011;51065;48.884;12.598;2023-03-04T00:30:38;20.13;;;7.38;;
64653;SDS011;51065;48.884;12.598;2023-03-04T00:33:03;19.33;;;7.20;;
64653;SDS011;51065;48.884;12.598;2023-03-04T00:35:29;19.40;;;6.85;;
64653;SDS011;51065;48.884;12.598;2023-03-04T00:37:55;22.02;;;7.72;;
64653;SDS011;51065;48.884;12.598;2023-03-04T00:40:20;20.85;;;7.43;;
64653;SDS011;51065;48.884;12.598;2023-03-04T00:42:46;21.13;;;7.07;;
64653;SDS011;51065;48.884;12.598;2023-03-04T00:45:11;20.85;;;8.00;;
64653;SDS011;51065;48.884;12.598;2023-03-04T00:47:37;22.08;;;8.00;;
64653;SDS011;51065;48.884;12.598;2023-03-04T00:50:03;23.42;;;8.23;;
64653;SDS011;51065;48.884;12.598;2023-03-04T00:52:29;16.70;;;6.57;;
64653;SDS011;51065;48.884;12.598;2023-03-04T00:54:55;20.55;;;6.80;;
64653;SDS011;51065;48.884;12.598;2023-03-04T00:57:20;17.85;;;6.57;;
64653;SDS011;51065;48.884;12.598;2023-03-04T00:59:46;19.95;;;6.22;;
64653;SDS011;51065;48.884;12.598;2023-03-04T01:02:11;16.10;;;5.57;;
64653;SDS011;51065;48.884;12.598;2023-03-04T01:04:37;18.48;;;6.45;;
64653;SDS011;51065;48.884;12.598;2023-03-04T01:07:03;17.00;;;6.45;;
64653;SDS011;51065;48.884;12.598;2023-03-04T01:09:29;16.20;;;6.05;;
64653;SDS011;51065;48.884;12.598;2023-03-04T01:11:54;16.63;;;5.80;;
64653;SDS011;51065;48.884;12.598;2023-03-04T01:14:20;18.00;;;6.65;;
64653;SDS011;51065;48.884;12.598;2023-03-04T01:16:45;19.70;;;6.13;;
64653;SDS011;51065;48.884;12.598;2023-03-04T01:19:11;17.80;;;5.93;;
64653;SDS011;51065;48.884;12.598;2023-03-04T01:21:37;18.67;;;6.40;;
64653;SDS011;51065;48.884;12.598;2023-03-04T01:24:02;18.83;;;6.35;;
64653;SDS011;51065;48.884;12.598;2023-03-04T01:26:28;18.38;;;5.97;;
64653;SDS011;51065;48.884;12.598;2023-03-04T01:28:54;14.40;;;5.43;;
64653;SDS011;51065;48.884;12.598;2023-03-04T01:31:19;17.98;;;5.38;;
64653;SDS011;51065;48.884;12.598;2023-03-04T01:33:45;21.10;;;6.20;;
64653;SDS011;51065;48.884;12.598;2023-03-04T01:36:10;15.45;;;4.90;;
64653;SDS011;51065;48.884;12.598;2023-03-04T01:38:36;19.98;;;5.63;;
64653;SDS011;51065;48.884;12.598;2023-03-04T01:41:02;21.05;;;5.88;;
64653;SDS011;51065;48.884;12.598;2023-03-04T01:43:28;20.42;;;6.63;;
64653;SDS011;51065;48.884;12.598;2023-03-04T01:45:55;18.88;;;6.25;;
64653;SDS011;51065;48.884;12.598;2023-03-04T01:48:25;16.98;;;5.57;;
64653;SDS011;51065;48.884;12.598;2023-03-04T01:50:55;19.60;;;5.97;;
64653;SDS011;51065;48.884;12.598;2023-03-04T01:53:22;18.42;;;5.97;;
64653;SDS011;51065;48.884;12.598;2023-03-04T01:55:51;17.30;;;6.63;;
64653;SDS011;51065;48.884;12.598;2023-03-04T01:58:18;22.25;;;6.18;;
64653;SDS011;51065;48.884;12.598;2023-03-04T02:00:44;20.15;;;6.22;;
64653;SDS011;51065;48.884;12.598;2023-03-04T02:03:10;19.77;;;6.10;;
64653;SDS011;51065;48.884;12.598;2023-03-04T02:05:40;18.10;;;5.70;;
64653;SDS011;51065;48.884;12.598;2023-03-04T02:08:08;18.63;;;6.03;;
64653;SDS011;51065;48.884;12.598;2023-03-04T02:10:34;17.38;;;5.43;;
64653;SDS011;51065;48.884;12.598;2023-03-04T02:13:00;18.90;;;6.28;;
64653;SDS011;51065;48.884;12.598;2023-03-04T02:15:26;18.55;;;5.95;;
64653;SDS011;51065;48.884;12.598;2023-03-04T02:17:53;17.27;;;5.53;;
64653;SDS011;51065;48.884;12.598;2023-03-04T02:23:25;20.35;;;6.20;;
64653;SDS011;51065;48.884;12.598;2023-03-04T02:28:35;18.85;;;6.07;;
64653;SDS011;51065;48.884;12.598;2023-03-04T02:31:00;22.23;;;5.63;;
64653;SDS011;51065;48.884;12.598;2023-03-04T02:33:26;17.10;;;5.03;;
64653;SDS011;51065;48.884;12.598;2023-03-04T02:35:51;15.60;;;4.95;;
64653;SDS011;51065;48.884;12.598;2023-03-04T02:38:17;22.15;;;6.85;;
64653;SDS011;51065;48.884;12.598;2023-03-04T02:40:44;19.45;;;6.13;;
64653;SDS011;51065;48.884;12.598;2023-03-04T02:43:13;24.08;;;5.78;;
64653;SDS011;51065;48.884;12.598;2023-03-04T02:45:43;23.08;;;6.22;;
64653;SDS011;51065;48.884;12.598;2023-03-04T02:48:11;19.83;;;6.00;;
64653;SDS011;51065;48.884;12.598;2023-03-04T02:50:45;18.88;;;5.60;;
64653;SDS011;51065;48.884;12.598;2023-03-04T02:53:13;20.10;;;5.85;;
64653;SDS011;51065;48.884;12.598;2023-03-04T02:55:39;19.30;;;6.30;;
64653;SDS011;51065;48.884;12.598;2023-03-04T02:58:06;19.05;;;5.72;;
64653;SDS011;51065;48.884;12.598;2023-03-04T03:00:32;22.27;;;6.68;;
64653;SDS011;51065;48.884;12.598;2023-03-04T03:02:57;15.10;;;5.68;;
64653;SDS011;51065;48.884;12.598;2023-03-04T03:05:24;18.77;;;5.75;;
64653;SDS011;51065;48.884;12.598;2023-03-04T03:07:50;19.08;;;5.68;;
64653;SDS011;51065;48.884;12.598;2023-03-04T03:10:16;17.15;;;5.78;;
64653;SDS011;51065;48.884;12.598;2023-03-04T03:12:42;19.13;;;5.50;;
64653;SDS011;51065;48.884;12.598;2023-03-04T03:15:07;23.23;;;6.32;;
64653;SDS011;51065;48.884;12.598;2023-03-04T03:17:33;17.45;;;6.10;;
64653;SDS011;51065;48.884;12.598;2023-03-04T03:19:59;23.77;;;6.50;;
64653;SDS011;51065;48.884;12.598;2023-03-04T03:22:24;20.85;;;5.90;;
64653;SDS011;51065;48.884;12.598;2023-03-04T03:24:50;19.80;;;6.63;;
64653;SDS011;51065;48.884;12.598;2023-03-04T03:27:15;19.30;;;5.57;;
64653;SDS011;51065;48.884;12.598;2023-03-04T03:29:41;19.35;;;5.50;;
64653;SDS011;51065;48.884;12.598;2023-03-04T03:32:07;20.40;;;6.00;;
64653;SDS011;51065;48.884;12.598;2023-03-04T03:34:32;21.08;;;6.35;;
64653;SDS011;51065;48.884;12.598;2023-03-04T03:36:58;19.20;;;6.25;;
64653;SDS011;51065;48.884;12.598;2023-03-04T03:39:24;20.58;;;6.28;;
64653;SDS011;51065;48.884;12.598;2023-03-04T03:41:49;20.45;;;5.40;;
64653;SDS011;51065;48.884;12.598;2023-03-04T03:44:15;16.63;;;6.20;;
64653;SDS011;51065;48.884;12.598;2023-03-04T03:46:40;20.52;;;6.75;;
64653;SDS011;51065;48.884;12.598;2023-03-04T03:49:06;20.60;;;7.25;;
64653;SDS011;51065;48.884;12.598;2023-03-04T03:51:31;21.77;;;7.32;;
64653;SDS011;51065;48.884;12.598;2023-03-04T03:53:57;22.40;;;6.30;;
64653;SDS011;51065;48.884;12.598;2023-03-04T03:56:22;18.27;;;6.57;;
64653;SDS011;51065;48.884;12.598;2023-03-04T03:58:48;22.55;;;7.05;;
64653;SDS011;51065;48.884;12.598;2023-03-04T04:01:13;19.60;;;6.53;;
64653;SDS011;51065;48.884;12.598;2023-03-04T04:03:39;20.02;;;6.47;;
64653;SDS011;51065;48.884;12.598;2023-03-04T04:06:04;21.98;;;7.15;;
64653;SDS011;51065;48.884;12.598;2023-03-04T04:08:31;23.98;;;7.38;;
64653;SDS011;51065;48.884;12.598;2023-03-04T04:10:57;18.55;;;6.70;;
64653;SDS011;51065;48.884;12.598;2023-03-04T04:13:23;22.25;;;7.45;;
64653;SDS011;51065;48.884;12.598;2023-03-04T04:15:50;20.15;;;6.85;;
64653;SDS011;51065;48.884;12.598;2023-03-04T04:18:16;18.77;;;6.93;;
64653;SDS011;51065;48.884;12.598;2023-03-04T04:20:41;18.38;;;6.03;;
64653;SDS011;51065;48.884;12.598;2023-03-04T04:23:07;20.38;;;6.32;;
64653;SDS011;51065;48.884;12.598;2023-03-04T04:25:33;19.60;;;6.30;;
64653;SDS011;51065;48.884;12.598;2023-03-04T04:27:58;18.42;;;5.93;;
64653;SDS011;51065;48.884;12.598;2023-03-04T04:30:24;17.48;;;5.57;;
64653;SDS011;51065;48.884;12.598;2023-03-04T04:32:49;19.85;;;6.45;;
64653;SDS011;51065;48.884;12.598;2023-03-04T04:35:15;20.48;;;6.82;;
64653;SDS011;51065;48.884;12.598;2023-03-04T04:37:41;18.48;;;6.70;;
64653;SDS011;51065;48.884;12.598;2023-03-04T04:40:06;21.58;;;7.38;;
64653;SDS011;51065;48.884;12.598;2023-03-04T04:42:33;21.02;;;6.53;;
64653;SDS011;51065;48.884;12.598;2023-03-04T04:44:58;22.50;;;6.60;;
64653;SDS011;51065;48.884;12.598;2023-03-04T04:47:24;20.85;;;6.22;;
64653;SDS011;51065;48.884;12.598;2023-03-04T04:49:49;20.60;;;6.15;;
64653;SDS011;51065;48.884;12.598;2023-03-04T04:52:15;22.20;;;6.47;;
64653;SDS011;51065;48.884;12.598;2023-03-04T04:54:41;19.35;;;6.60;;
64653;SDS011;51065;48.884;12.598;2023-03-04T04:57:06;26.27;;;7.20;;
64653;SDS011;51065;48.884;12.598;2023-03-04T04:59:32;14.95;;;5.68;;
64653;SDS011;51065;48.884;12.598;2023-03-04T05:01:57;22.13;;;7.10;;
64653;SDS011;51065;48.884;12.598;2023-03-04T05:04:23;20.63;;;7.32;;
64653;SDS011;51065;48.884;12.598;2023-03-04T05:06:49;19.08;;;6.97;;
64653;SDS011;51065;48.884;12.598;2023-03-04T05:09:14;18.42;;;6.35;;
64653;SDS011;51065;48.884;12.598;2023-03-04T05:11:40;20.67;;;6.82;;
64653;SDS011;51065;48.884;12.598;2023-03-04T05:14:05;21.35;;;7.38;;
64653;SDS011;51065;48.884;12.598;2023-03-04T05:16:31;23.58;;;6.40;;
64653;SDS011;51065;48.884;12.598;2023-03-04T05:18:57;19.63;;;6.50;;
64653;SDS011;51065;48.884;12.598;2023-03-04T05:21:22;23.10;;;6.75;;
64653;SDS011;51065;48.884;12.598;2023-03-04T05:23:48;20.33;;;6.95;;
64653;SDS011;51065;48.884;12.598;2023-03-04T05:26:14;20.55;;;6.80;;
64653;SDS011;51065;48.884;12.598;2023-03-04T05:28:41;23.42;;;7.35;;
64653;SDS011;51065;48.884;12.598;2023-03-04T05:31:07;24.25;;;6.90;;
64653;SDS011;51065;48.884;12.598;2023-03-04T05:33:33;22.17;;;6.75;;
64653;SDS011;51065;48.884;12.598;2023-03-04T05:35:59;16.88;;;6.40;;
64653;SDS011;51065;48.884;12.598;2023-03-04T05:38:25;17.40;;;6.68;;
64653;SDS011;51065;48.884;12.598;2023-03-04T05:40:55;19.17;;;6.68;;
64653;SDS011;51065;48.884;12.598;2023-03-04T05:43:26;20.77;;;6.97;;
64653;SDS011;51065;48.884;12.598;2023-03-04T05:45:52;21.38;;;6.72;;
64653;SDS011;51065;48.884;12.598;2023-03-04T05:48:18;20.35;;;6.30;;
64653;SDS011;51065;48.884;12.598;2023-03-04T05:50:43;20.27;;;7.18;;
64653;SDS011;51065;48.884;12.598;2023-03-04T05:53:09;19.35;;;6.53;;
64653;SDS011;51065;48.884;12.598;2023-03-04T05:55:35;19.95;;;6.05;;
64653;SDS011;51065;48.884;12.598;2023-03-04T05:58:00;20.65;;;7.32;;
64653;SDS011;51065;48.884;12.598;2023-03-04T06:00:26;19.33;;;6.78;;
64653;SDS011;51065;48.884;12.598;2023-03-04T06:02:52;20.92;;;6.60;;
64653;SDS011;51065;48.884;12.598;2023-03-04T06:05:18;26.10;;;7.70;;
64653;SDS011;51065;48.884;12.598;2023-03-04T06:07:43;22.38;;;7.20;;
64653;SDS011;51065;48.884;12.598;2023-03-04T06:10:10;22.55;;;7.50;;
64653;SDS011;51065;48.884;12.598;2023-03-04T06:12:38;18.17;;;6.25;;
64653;SDS011;51065;48.884;12.598;2023-03-04T06:15:04;21.98;;;6.80;;
64653;SDS011;51065;48.884;12.598;2023-03-04T06:17:30;21.67;;;8.18;;
64653;SDS011;51065;48.884;12.598;2023-03-04T06:19:56;19.13;;;7.05;;
64653;SDS011;51065;48.884;12.598;2023-03-04T06:22:22;20.90;;;6.97;;
64653;SDS011;51065;48.884;12.598;2023-03-04T06:24:47;22.58;;;7.45;;
64653;SDS011;51065;48.884;12.598;2023-03-04T06:27:13;19.55;;;6.97;;
64653;SDS011;51065;48.884;12.598;2023-03-04T06:29:40;22.17;;;7.57;;
64653;SDS011;51065;48.884;12.598;2023-03-04T06:32:06;20.70;;;7.10;;
64653;SDS011;51065;48.884;12.598;2023-03-04T06:34:31;23.08;;;8.45;;
64653;SDS011;51065;48.884;12.598;2023-03-04T06:36:58;22.23;;;6.68;;
64653;SDS011;51065;48.884;12.598;2023-03-04T06:39:24;20.60;;;7.72;;
64653;SDS011;51065;48.884;12.598;2023-03-04T06:41:49;18.88;;;7.03;;
64653;SDS011;51065;48.884;12.598;2023-03-04T06:44:15;22.33;;;6.82;;
64653;SDS011;51065;48.884;12.598;2023-03-04T06:46:41;19.13;;;6.70;;
64653;SDS011;51065;48.884;12.598;2023-03-04T06:49:06;17.80;;;6.32;;
64653;SDS011;51065;48.884;12.598;2023-03-04T06:51:32;18.85;;;6.97;;
64653;SDS011;51065;48.884;12.598;2023-03-04T06:53:57;18.48;;;6.78;;
64653;SDS011;51065;48.884;12.598;2023-03-04T06:56:23;19.38;;;7.80;;
64653;SDS011;51065;48.884;12.598;2023-03-04T06:58:49;21.50;;;7.15;;
64653;SDS011;51065;48.884;12.598;2023-03-04T07:01:16;19.92;;;6.95;;
64653;SDS011;51065;48.884;12.598;2023-03-04T07:03:48;23.02;;;7.18;;
64653;SDS011;51065;48.884;12.598;2023-03-04T07:06:15;20.10;;;7.57;;
64653;SDS011;51065;48.884;12.598;2023-03-04T07:08:42;16.77;;;6.57;;
64653;SDS011;51065;48.884;12.598;2023-03-04T07:11:08;22.25;;;8.82;;
64653;SDS011;51065;48.884;12.598;2023-03-04T07:13:34;23.60;;;8.10;;
64653;SDS011;51065;48.884;12.598;2023-03-04T07:16:03;18.08;;;7.00;;
64653;SDS011;51065;48.884;12.598;2023-03-04T07:18:29;19.48;;;6.75;;
64653;SDS011;51065;48.884;12.598;2023-03-04T07:20:54;19.73;;;6.90;;
64653;SDS011;51065;48.884;12.598;2023-03-04T07:23:20;18.38;;;7.13;;
64653;SDS011;51065;48.884;12.598;2023-03-04T07:25:47;19.20;;;7.50;;
64653;SDS011;51065;48.884;12.598;2023-03-04T07:28:13;18.20;;;6.70;;
64653;SDS011;51065;48.884;12.598;2023-03-04T07:30:39;19.38;;;7.65;;
64653;SDS011;51065;48.884;12.598;2023-03-04T07:33:05;16.80;;;7.18;;
64653;SDS011;51065;48.884;12.598;2023-03-04T07:35:30;20.73;;;8.27;;
64653;SDS011;51065;48.884;12.598;2023-03-04T07:37:56;21.20;;;7.38;;
64653;SDS011;51065;48.884;12.598;2023-03-04T07:40:21;20.15;;;7.10;;
64653;SDS011;51065;48.884;12.598;2023-03-04T07:42:48;21.00;;;7.35;;
64653;SDS011;51065;48.884;12.598;2023-03-04T07:45:15;21.02;;;7.68;;
64653;SDS011;51065;48.884;12.598;2023-03-04T07:47:40;18.67;;;7.32;;
64653;SDS011;51065;48.884;12.598;2023-03-04T07:50:06;18.90;;;7.63;;
64653;SDS011;51065;48.884;12.598;2023-03-04T07:52:32;19.10;;;7.40;;
64653;SDS011;51065;48.884;12.598;2023-03-04T07:55:02;22.45;;;7.63;;
64653;SDS011;51065;48.884;12.598;2023-03-04T07:57:28;18.92;;;7.20;;
64653;SDS011;51065;48.884;12.598;2023-03-04T07:59:54;18.80;;;7.22;;
64653;SDS011;51065;48.884;12.598;2023-03-04T08:02:20;21.20;;;7.47;;
64653;SDS011;51065;48.884;12.598;2023-03-04T08:04:45;18.65;;;7.07;;
64653;SDS011;51065;48.884;12.598;2023-03-04T08:07:11;19.65;;;7.88;;
64653;SDS011;51065;48.884;12.598;2023-03-04T08:09:36;17.42;;;6.80;;
64653;SDS011;51065;48.884;12.598;2023-03-04T08:12:02;19.48;;;6.97;;
64653;SDS011;51065;48.884;12.598;2023-03-04T08:14:28;20.45;;;7.45;;
64653;SDS011;51065;48.884;12.598;2023-03-04T08:16:53;17.90;;;6.55;;
64653;SDS011;51065;48.884;12.598;2023-03-04T08:19:19;18.42;;;6.78;;
64653;SDS011;51065;48.884;12.598;2023-03-04T08:21:44;18.15;;;7.05;;
64653;SDS011;51065;48.884;12.598;2023-03-04T08:24:10;16.15;;;6.05;;
64653;SDS011;51065;48.884;12.598;2023-03-04T08:26:37;16.60;;;6.60;;
64653;SDS011;51065;48.884;12.598;2023-03-04T08:29:09;17.30;;;6.10;;
64653;SDS011;51065;48.884;12.598;2023-03-04T08:31:37;19.77;;;6.83;;
64653;SDS011;51065;48.884;12.598;2023-03-04T08:34:03;17.27;;;5.88;;
64653;SDS011;51065;48.884;12.598;2023-03-04T08:36:32;19.48;;;6.60;;
64653;SDS011;51065;48.884;12.598;2023-03-04T08:38:58;17.00;;;5.85;;
64653;SDS011;51065;48.884;12.598;2023-03-04T08:41:24;16.48;;;5.97;;
64653;SDS011;51065;48.884;12.598;2023-03-04T08:43:51;18.83;;;6.75;;
64653;SDS011;51065;48.884;12.598;2023-03-04T08:46:17;17.48;;;6.53;;
64653;SDS011;51065;48.884;12.598;2023-03-04T08:48:43;16.88;;;6.40;;
64653;SDS011;51065;48.884;12.598;2023-03-04T08:51:09;17.85;;;6.13;;
64653;SDS011;51065;48.884;12.598;2023-03-04T08:53:36;16.88;;;6.90;;
64653;SDS011;51065;48.884;12.598;2023-03-04T08:56:02;15.15;;;5.70;;
64653;SDS011;51065;48.884;12.598;2023-03-04T08:58:28;15.43;;;5.25;;
64653;SDS011;51065;48.884;12.598;2023-03-04T09:00:54;16.05;;;5.93;;
64653;SDS011;51065;48.884;12.598;2023-03-04T09:03:19;17.48;;;6.20;;
64653;SDS011;51065;48.884;12.598;2023-03-04T09:05:45;16.17;;;5.63;;
64653;SDS011;51065;48.884;12.598;2023-03-04T09:08:12;15.15;;;5.53;;
64653;SDS011;51065;48.884;12.598;2023-03-04T09:10:38;13.43;;;5.07;;
64653;SDS011;51065;48.884;12.598;2023-03-04T09:13:04;15.48;;;5.72;;
64653;SDS011;51065;48.884;12.598;2023-03-04T09:15:30;13.05;;;4.90;;
64653;SDS011;51065;48.884;12.598;2023-03-04T09:18:00;13.85;;;5.20;;
64653;SDS011;51065;48.884;12.598;2023-03-04T09:20:26;15.30;;;5.18;;
64653;SDS011;51065;48.884;12.598;2023-03-04T09:22:52;16.42;;;5.68;;
64653;SDS011;51065;48.884;12.598;2023-03-04T09:25:18;16.38;;;5.40;;
64653;SDS011;51065;48.884;12.598;2023-03-04T09:27:43;14.05;;;4.80;;
64653;SDS011;51065;48.884;12.598;2023-03-04T09:30:09;14.82;;;5.18;;
64653;SDS011;51065;48.884;12.598;2023-03-04T09:32:35;16.50;;;5.05;;
64653;SDS011;51065;48.884;12.598;2023-03-04T09:35:01;13.98;;;5.07;;
64653;SDS011;51065;48.884;12.598;2023-03-04T09:37:27;13.55;;;5.03;;
64653;SDS011;51065;48.884;12.598;2023-03-04T09:39:52;14.82;;;4.82;;
64653;SDS011;51065;48.884;12.598;2023-03-04T09:42:29;14.52;;;5.28;;
64653;SDS011;51065;48.884;12.598;2023-03-04T09:44:59;13.27;;;4.93;;
64653;SDS011;51065;48.884;12.598;2023-03-04T09:47:26;16.60;;;5.03;;
64653;SDS011;51065;48.884;12.598;2023-03-04T09:50:00;15.57;;;5.38;;
64653;SDS011;51065;48.884;12.598;2023-03-04T09:57:50;14.57;;;5.03;;
64653;SDS011;51065;48.884;12.598;2023-03-04T10:00:22;15.88;;;5.43;;
64653;SDS011;51065;48.884;12.598;2023-03-04T10:05:50;15.77;;;5.35;;
64653;SDS011;51065;48.884;12.598;2023-03-04T10:16:25;18.67;;;5.80;;
64653;SDS011;51065;48.884;12.598;2023-03-04T10:18:56;15.63;;;5.28;;
64653;SDS011;51065;48.884;12.598;2023-03-04T10:21:31;15.25;;;5.25;;
64653;SDS011;51065;48.884;12.598;2023-03-04T10:24:00;16.95;;;5.22;;
64653;SDS011;51065;48.884;12.598;2023-03-04T10:26:35;17.35;;;5.63;;
64653;SDS011;51065;48.884;12.598;2023-03-04T10:29:02;17.60;;;5.90;;
64653;SDS011;51065;48.884;12.598;2023-03-04T10:31:34;17.30;;;5.30;;
64653;SDS011;51065;48.884;12.598;2023-03-04T10:34:05;18.55;;;6.00;;
64653;SDS011;51065;48.884;12.598;2023-03-04T10:39:15;18.70;;;5.82;;
64653;SDS011;51065;48.884;12.598;2023-03-04T10:41:59;14.43;;;5.32;;
64653;SDS011;51065;48.884;12.598;2023-03-04T10:44:27;16.35;;;5.82;;
64653;SDS011;51065;48.884;12.598;2023-03-04T10:46:54;16.17;;;5.90;;
64653;SDS011;51065;48.884;12.598;2023-03-04T10:49:21;17.52;;;5.78;;
64653;SDS011;51065;48.884;12.598;2023-03-04T10:51:53;17.08;;;5.72;;
64653;SDS011;51065;48.884;12.598;2023-03-04T10:54:40;17.30;;;5.80;;
64653;SDS011;51065;48.884;12.598;2023-03-04T10:57:22;17.98;;;5.65;;
64653;SDS011;51065;48.884;12.598;2023-03-04T11:00:00;16.88;;;5.95;;
64653;SDS011;51065;48.884;12.598;2023-03-04T11:02:47;15.77;;;5.23;;
64653;SDS011;51065;48.884;12.598;2023-03-04T11:07:40;15.50;;;5.70;;
64653;SDS011;51065;48.884;12.598;2023-03-04T11:12:42;18.13;;;6.43;;
64653;SDS011;51065;48.884;12.598;2023-03-04T11:15:17;18.23;;;5.80;;
64653;SDS011;51065;48.884;12.598;2023-03-04T11:18:01;16.88;;;5.40;;
64653;SDS011;51065;48.884;12.598;2023-03-04T11:20:38;18.05;;;5.63;;
64653;SDS011;51065;48.884;12.598;2023-03-04T11:23:21;17.98;;;5.43;;
64653;SDS011;51065;48.884;12.598;2023-03-04T11:26:20;19.23;;;6.55;;
64653;SDS011;51065;48.884;12.598;2023-03-04T11:31:27;17.83;;;5.60;;
64653;SDS011;51065;48.884;12.598;2023-03-04T11:34:00;19.02;;;6.03;;
64653;SDS011;51065;48.884;12.598;2023-03-04T11:36:33;18.38;;;6.25;;
64653;SDS011;51065;48.884;12.598;2023-03-04T11:39:15;17.70;;;5.57;;
64653;SDS011;51065;48.884;12.598;2023-03-04T11:42:09;19.00;;;6.80;;
64653;SDS011;51065;48.884;12.598;2023-03-04T11:44:36;13.73;;;4.95;;
64653;SDS011;51065;48.884;12.598;2023-03-04T11:53:12;17.42;;;5.32;;
64653;SDS011;51065;48.884;12.598;2023-03-04T11:58:34;14.07;;;4.28;;
64653;SDS011;51065;48.884;12.598;2023-03-04T12:01:07;16.83;;;4.78;;
64653;SDS011;51065;48.884;12.598;2023-03-04T12:06:42;16.77;;;5.03;;
64653;SDS011;51065;48.884;12.598;2023-03-04T12:26:37;14.45;;;5.30;;
64653;SDS011;51065;48.884;12.598;2023-03-04T12:31:52;15.25;;;5.47;;
64653;SDS011;51065;48.884;12.598;2023-03-04T12:46:13;16.77;;;6.07;;
64653;SDS011;51065;48.884;12.598;2023-03-04T12:49:21;19.95;;;6.25;;
64653;SDS011;51065;48.884;12.598;2023-03-04T12:54:39;19.42;;;6.78;;
64653;SDS011;51065;48.884;12.598;2023-03-04T12:57:13;17.85;;;5.82;;
64653;SDS011;51065;48.884;12.598;2023-03-04T13:09:02;19.48;;;6.70;;
64653;SDS011;51065;48.884;12.598;2023-03-04T13:11:37;17.00;;;6.18;;
64653;SDS011;51065;48.884;12.598;2023-03-04T13:16:45;19.20;;;6.55;;
64653;SDS011;51065;48.884;12.598;2023-03-04T13:22:28;19.92;;;6.60;;
64653;SDS011;51065;48.884;12.598;2023-03-04T13:25:00;17.38;;;5.65;;
64653;SDS011;51065;48.884;12.598;2023-03-04T13:27:47;19.00;;;5.90;;
64653;SDS011;51065;48.884;12.598;2023-03-04T13:46:29;19.20;;;6.32;;
64653;SDS011;51065;48.884;12.598;2023-03-04T13:49:05;19.85;;;6.68;;
64653;SDS011;51065;48.884;12.598;2023-03-04T13:51:40;18.52;;;6.47;;
64653;SDS011;51065;48.884;12.598;2023-03-04T13:54:13;21.45;;;6.50;;
64653;SDS011;51065;48.884;12.598;2023-03-04T13:56:41;19.35;;;6.13;;
64653;SDS011;51065;48.884;12.598;2023-03-04T14:04:18;20.35;;;7.00;;
64653;SDS011;51065;48.884;12.598;2023-03-04T14:06:46;19.30;;;7.80;;
64653;SDS011;51065;48.884;12.598;2023-03-04T14:09:18;21.92;;;6.82;;
64653;SDS011;51065;48.884;12.598;2023-03-04T14:11:46;20.90;;;9.23;;
64653;SDS011;51065;48.884;12.598;2023-03-04T14:14:14;22.35;;;7.70;;
64653;SDS011;51065;48.884;12.598;2023-03-04T14:16:47;21.33;;;7.53;;
64653;SDS011;51065;48.884;12.598;2023-03-04T14:19:24;21.45;;;7.63;;
64653;SDS011;51065;48.884;12.598;2023-03-04T14:21:52;19.90;;;6.63;;
64653;SDS011;51065;48.884;12.598;2023-03-04T14:24:19;23.20;;;7.95;;
64653;SDS011;51065;48.884;12.598;2023-03-04T14:26:46;22.80;;;8.23;;
64653;SDS011;51065;48.884;12.598;2023-03-04T14:29:49;21.48;;;8.32;;
64653;SDS011;51065;48.884;12.598;2023-03-04T14:32:04;19.15;;;7.13;;
64653;SDS011;51065;48.884;12.598;2023-03-04T14:34:31;21.13;;;7.72;;
64653;SDS011;51065;48.884;12.598;2023-03-04T14:37:14;23.52;;;8.77;;
64653;SDS011;51065;48.884;12.598;2023-03-04T14:39:53;20.33;;;7.60;;
64653;SDS011;51065;48.884;12.598;2023-03-04T14:42:22;18.90;;;8.00;;
64653;SDS011;51065;48.884;12.598;2023-03-04T14:44:53;20.40;;;7.20;;
64653;SDS011;51065;48.884;12.598;2023-03-04T14:47:23;24.63;;;8.23;;
64653;SDS011;51065;48.884;12.598;2023-03-04T14:50:00;20.90;;;8.00;;
64653;SDS011;51065;48.884;12.598;2023-03-04T14:52:38;23.35;;;9.20;;
64653;SDS011;51065;48.884;12.598;2023-03-04T14:57:44;21.23;;;7.97;;
64653;SDS011;51065;48.884;12.598;2023-03-04T15:00:15;22.25;;;7.63;;
64653;SDS011;51065;48.884;12.598;2023-03-04T15:02:52;25.20;;;7.90;;
64653;SDS011;51065;48.884;12.598;2023-03-04T15:07:54;20.85;;;8.43;;
64653;SDS011;51065;48.884;12.598;2023-03-04T15:10:30;21.20;;;7.07;;
64653;SDS011;51065;48.884;12.598;2023-03-04T15:12:58;21.63;;;8.10;;
64653;SDS011;51065;48.884;12.598;2023-03-04T15:15:29;22.38;;;8.43;;
64653;SDS011;51065;48.884;12.598;2023-03-04T15:18:15;20.60;;;8.02;;
64653;SDS011;51065;48.884;12.598;2023-03-04T15:23:45;20.52;;;7.35;;
64653;SDS011;51065;48.884;12.598;2023-03-04T15:26:11;18.00;;;6.82;;
64653;SDS011;51065;48.884;12.598;2023-03-04T15:28:37;22.58;;;7.80;;
64653;SDS011;51065;48.884;12.598;2023-03-04T15:31:04;23.88;;;8.45;;
64653;SDS011;51065;48.884;12.598;2023-03-04T15:33:30;22.08;;;7.35;;
64653;SDS011;51065;48.884;12.598;2023-03-04T15:35:57;19.42;;;7.90;;
64653;SDS011;51065;48.884;12.598;2023-03-04T15:38:24;21.40;;;7.50;;
64653;SDS011;51065;48.884;12.598;2023-03-04T15:40:51;22.13;;;7.65;;
64653;SDS011;51065;48.884;12.598;2023-03-04T15:43:18;19.63;;;7.00;;
64653;SDS011;51065;48.884;12.598;2023-03-04T15:45:46;20.55;;;7.25;;
64653;SDS011;51065;48.884;12.598;2023-03-04T15:48:14;21.23;;;7.55;;
64653;SDS011;51065;48.884;12.598;2023-03-04T15:50:44;19.63;;;7.57;;
64653;SDS011;51065;48.884;12.598;2023-03-04T15:53:38;26.73;;;7.97;;
64653;SDS011;51065;48.884;12.598;2023-03-04T15:56:18;23.67;;;9.70;;
64653;SDS011;51065;48.884;12.598;2023-03-04T15:58:47;22.83;;;9.70;;
64653;SDS011;51065;48.884;12.598;2023-03-04T16:01:19;23.55;;;8.80;;
64653;SDS011;51065;48.884;12.598;2023-03-04T16:03:50;21.13;;;7.43;;
64653;SDS011;51065;48.884;12.598;2023-03-04T16:06:39;21.00;;;8.65;;
64653;SDS011;51065;48.884;12.598;2023-03-04T16:09:08;18.75;;;8.32;;
64653;SDS011;51065;48.884;12.598;2023-03-04T16:11:38;21.17;;;8.60;;
64653;SDS011;51065;48.884;12.598;2023-03-04T16:14:08;21.57;;;8.53;;
64653;SDS011;51065;48.884;12.598;2023-03-04T16:16:38;21.88;;;7.75;;
64653;SDS011;51065;48.884;12.598;2023-03-04T16:19:04;19.67;;;7.55;;
64653;SDS011;51065;48.884;12.598;2023-03-04T16:21:30;19.83;;;6.63;;
64653;SDS011;51065;48.884;12.598;2023-03-04T16:23:56;18.92;;;7.45;;
64653;SDS011;51065;48.884;12.598;2023-03-04T16:26:22;20.85;;;7.90;;
64653;SDS011;51065;48.884;12.598;2023-03-04T16:28:50;21.08;;;8.35;;
64653;SDS011;51065;48.884;12.598;2023-03-04T16:31:16;22.83;;;7.78;;